sensor_id;sensor_type;location;lat;lon;timestamp;P1;durP1;ratioP1;P2;durP2;ratioP2
6547;SDS011;3307;52.416;16.862;2022-09-09T00:01:04;24.37;;;22.07;;
6547;SDS011;3307;52.416;16.862;2022-09-09T00:03:35;19.08;;;17.27;;
6547;SDS011;3307;52.416;16.862;2022-09-09T00:06:08;22.38;;;20.13;;
6547;SDS011;3307;52.416;16.862;2022-09-09T00:08:53;22.60;;;19.70;;
6547;SDS011;3307;52.416;16.862;2022-09-09T00:11:39;21.40;;;19.17;;
6547;SDS011;3307;52.416;16.862;2022-09-09T00:14:10;27.70;;;24.75;;
6547;SDS011;3307;52.416;16.862;2022-09-09T00:16:40;25.38;;;22.88;;
6547;SDS011;3307;52.416;16.862;2022-09-09T00:19:10;21.60;;;19.50;;
6547;SDS011;3307;52.416;16.862;2022-09-09T00:24:32;21.88;;;19.73;;
6547;SDS011;3307;52.416;16.862;2022-09-09T00:27:01;22.75;;;20.20;;
6547;SDS011;3307;52.416;16.862;2022-09-09T00:29:47;21.27;;;19.08;;
6547;SDS011;3307;52.416;16.862;2022-09-09T00:32:18;21.17;;;19.08;;
6547;SDS011;3307;52.416;16.862;2022-09-09T00:34:54;18.00;;;16.20;;
6547;SDS011;3307;52.416;16.862;2022-09-09T00:37:22;20.92;;;18.92;;
6547;SDS011;3307;52.416;16.862;2022-09-09T00:39:50;20.75;;;18.75;;
6547;SDS011;3307;52.416;16.862;2022-09-09T00:42:26;19.85;;;18.00;;
6547;SDS011;3307;52.416;16.862;2022-09-09T00:48:10;18.58;;;16.83;;
6547;SDS011;3307;52.416;16.862;2022-09-09T00:56:24;18.15;;;16.45;;
6547;SDS011;3307;52.416;16.862;2022-09-09T01:01:41;16.77;;;15.03;;
6547;SDS011;3307;52.416;16.862;2022-09-09T01:04:15;15.17;;;13.73;;
6547;SDS011;3307;52.416;16.862;2022-09-09T01:06:45;17.05;;;15.35;;
6547;SDS011;3307;52.416;16.862;2022-09-09T01:09:25;16.35;;;14.82;;
6547;SDS011;3307;52.416;16.862;2022-09-09T01:12:03;16.15;;;14.65;;
6547;SDS011;3307;52.416;16.862;2022-09-09T01:25:12;18.05;;;16.40;;
6547;SDS011;3307;52.416;16.862;2022-09-09T01:27:44;17.52;;;15.82;;
6547;SDS011;3307;52.416;16.862;2022-09-09T01:30:13;16.77;;;15.00;;
6547;SDS011;3307;52.416;16.862;2022-09-09T01:32:47;17.30;;;15.70;;
6547;SDS011;3307;52.416;16.862;2022-09-09T01:35:18;18.02;;;16.33;;
6547;SDS011;3307;52.416;16.862;2022-09-09T01:37:58;16.38;;;14.77;;
6547;SDS011;3307;52.416;16.862;2022-09-09T01:40:26;15.47;;;14.03;;
6547;SDS011;3307;52.416;16.862;2022-09-09T01:42:52;18.17;;;16.38;;
6547;SDS011;3307;52.416;16.862;2022-09-09T01:45:17;18.13;;;16.47;;
6547;SDS011;3307;52.416;16.862;2022-09-09T01:47:43;16.77;;;15.20;;
6547;SDS011;3307;52.416;16.862;2022-09-09T01:50:09;16.88;;;15.18;;
6547;SDS011;3307;52.416;16.862;2022-09-09T01:52:36;17.77;;;16.02;;
6547;SDS011;3307;52.416;16.862;2022-09-09T01:55:02;17.20;;;15.40;;
6547;SDS011;3307;52.416;16.862;2022-09-09T01:57:33;16.92;;;15.23;;
6547;SDS011;3307;52.416;16.862;2022-09-09T02:02:53;17.70;;;15.80;;
6547;SDS011;3307;52.416;16.862;2022-09-09T02:05:27;16.50;;;15.00;;
6547;SDS011;3307;52.416;16.862;2022-09-09T02:08:00;16.55;;;15.05;;
6547;SDS011;3307;52.416;16.862;2022-09-09T02:10:33;17.25;;;15.55;;
6547;SDS011;3307;52.416;16.862;2022-09-09T02:18:12;17.80;;;16.15;;
6547;SDS011;3307;52.416;16.862;2022-09-09T02:20:39;20.90;;;18.70;;
6547;SDS011;3307;52.416;16.862;2022-09-09T02:23:05;15.60;;;14.20;;
6547;SDS011;3307;52.416;16.862;2022-09-09T02:25:33;16.92;;;15.25;;
6547;SDS011;3307;52.416;16.862;2022-09-09T02:28:00;18.25;;;16.45;;
6547;SDS011;3307;52.416;16.862;2022-09-09T02:30:27;18.33;;;16.48;;
6547;SDS011;3307;52.416;16.862;2022-09-09T02:32:54;18.77;;;16.98;;
6547;SDS011;3307;52.416;16.862;2022-09-09T02:35:24;19.38;;;17.38;;
6547;SDS011;3307;52.416;16.862;2022-09-09T02:37:51;21.45;;;19.35;;
6547;SDS011;3307;52.416;16.862;2022-09-09T02:40:18;20.13;;;18.23;;
6547;SDS011;3307;52.416;16.862;2022-09-09T02:42:44;16.73;;;15.13;;
6547;SDS011;3307;52.416;16.862;2022-09-09T02:45:12;17.23;;;15.50;;
6547;SDS011;3307;52.416;16.862;2022-09-09T02:50:22;17.55;;;15.95;;
6547;SDS011;3307;52.416;16.862;2022-09-09T02:52:54;18.42;;;16.63;;
6547;SDS011;3307;52.416;16.862;2022-09-09T02:55:43;18.92;;;17.05;;
6547;SDS011;3307;52.416;16.862;2022-09-09T02:58:10;18.30;;;16.45;;
6547;SDS011;3307;52.416;16.862;2022-09-09T03:00:37;19.55;;;17.63;;
6547;SDS011;3307;52.416;16.862;2022-09-09T03:03:05;20.48;;;18.27;;
6547;SDS011;3307;52.416;16.862;2022-09-09T03:05:32;18.05;;;16.25;;
6547;SDS011;3307;52.416;16.862;2022-09-09T03:07:57;18.30;;;16.30;;
6547;SDS011;3307;52.416;16.862;2022-09-09T03:10:23;19.43;;;17.00;;
6547;SDS011;3307;52.416;16.862;2022-09-09T03:12:48;19.80;;;18.07;;
6547;SDS011;3307;52.416;16.862;2022-09-09T03:15:14;17.13;;;15.33;;
6547;SDS011;3307;52.416;16.862;2022-09-09T03:17:40;19.20;;;17.40;;
6547;SDS011;3307;52.416;16.862;2022-09-09T03:20:06;20.77;;;18.63;;
6547;SDS011;3307;52.416;16.862;2022-09-09T03:22:32;19.73;;;17.73;;
6547;SDS011;3307;52.416;16.862;2022-09-09T03:24:58;18.50;;;16.70;;
6547;SDS011;3307;52.416;16.862;2022-09-09T03:27:23;20.50;;;18.47;;
6547;SDS011;3307;52.416;16.862;2022-09-09T03:29:48;17.23;;;15.43;;
6547;SDS011;3307;52.416;16.862;2022-09-09T03:32:16;18.50;;;16.70;;
6547;SDS011;3307;52.416;16.862;2022-09-09T03:34:42;20.88;;;18.83;;
6547;SDS011;3307;52.416;16.862;2022-09-09T03:37:08;19.87;;;17.87;;
6547;SDS011;3307;52.416;16.862;2022-09-09T03:39:33;19.43;;;17.53;;
6547;SDS011;3307;52.416;16.862;2022-09-09T03:41:58;19.47;;;17.50;;
6547;SDS011;3307;52.416;16.862;2022-09-09T03:44:24;19.63;;;17.73;;
6547;SDS011;3307;52.416;16.862;2022-09-09T03:46:49;18.87;;;17.03;;
6547;SDS011;3307;52.416;16.862;2022-09-09T03:49:15;18.47;;;16.50;;
6547;SDS011;3307;52.416;16.862;2022-09-09T03:51:40;18.20;;;16.30;;
6547;SDS011;3307;52.416;16.862;2022-09-09T03:54:06;19.10;;;17.10;;
6547;SDS011;3307;52.416;16.862;2022-09-09T03:56:33;20.20;;;18.20;;
6547;SDS011;3307;52.416;16.862;2022-09-09T03:58:59;17.50;;;15.88;;
6547;SDS011;3307;52.416;16.862;2022-09-09T04:01:25;19.70;;;17.30;;
6547;SDS011;3307;52.416;16.862;2022-09-09T04:03:50;17.63;;;15.93;;
6547;SDS011;3307;52.416;16.862;2022-09-09T04:06:17;19.60;;;17.60;;
6547;SDS011;3307;52.416;16.862;2022-09-09T04:08:42;18.87;;;16.87;;
6547;SDS011;3307;52.416;16.862;2022-09-09T04:11:08;18.47;;;16.63;;
6547;SDS011;3307;52.416;16.862;2022-09-09T04:13:35;21.42;;;19.27;;
6547;SDS011;3307;52.416;16.862;2022-09-09T04:16:02;19.58;;;17.75;;
6547;SDS011;3307;52.416;16.862;2022-09-09T04:18:28;20.85;;;18.85;;
6547;SDS011;3307;52.416;16.862;2022-09-09T04:20:54;19.70;;;17.73;;
6547;SDS011;3307;52.416;16.862;2022-09-09T04:23:22;18.55;;;16.85;;
6547;SDS011;3307;52.416;16.862;2022-09-09T04:25:52;18.13;;;16.33;;
6547;SDS011;3307;52.416;16.862;2022-09-09T04:28:19;18.73;;;17.02;;
6547;SDS011;3307;52.416;16.862;2022-09-09T04:30:46;17.40;;;15.70;;
6547;SDS011;3307;52.416;16.862;2022-09-09T04:33:11;19.47;;;17.60;;
6547;SDS011;3307;52.416;16.862;2022-09-09T04:35:38;18.52;;;16.63;;
6547;SDS011;3307;52.416;16.862;2022-09-09T04:38:04;18.60;;;16.80;;
6547;SDS011;3307;52.416;16.862;2022-09-09T04:40:32;17.40;;;15.77;;
6547;SDS011;3307;52.416;16.862;2022-09-09T04:42:58;19.23;;;17.33;;
6547;SDS011;3307;52.416;16.862;2022-09-09T04:45:24;22.00;;;19.85;;
6547;SDS011;3307;52.416;16.862;2022-09-09T04:47:51;18.13;;;16.35;;
6547;SDS011;3307;52.416;16.862;2022-09-09T04:50:16;19.67;;;17.77;;
6547;SDS011;3307;52.416;16.862;2022-09-09T04:52:41;18.63;;;16.67;;
6547;SDS011;3307;52.416;16.862;2022-09-09T04:55:07;20.33;;;18.37;;
6547;SDS011;3307;52.416;16.862;2022-09-09T04:57:34;17.93;;;16.33;;
6547;SDS011;3307;52.416;16.862;2022-09-09T04:59:59;18.25;;;16.45;;
6547;SDS011;3307;52.416;16.862;2022-09-09T05:02:25;17.57;;;15.77;;
6547;SDS011;3307;52.416;16.862;2022-09-09T05:04:51;17.85;;;16.15;;
6547;SDS011;3307;52.416;16.862;2022-09-09T05:07:16;17.63;;;15.83;;
6547;SDS011;3307;52.416;16.862;2022-09-09T05:09:42;19.40;;;17.07;;
6547;SDS011;3307;52.416;16.862;2022-09-09T05:12:08;18.20;;;16.30;;
6547;SDS011;3307;52.416;16.862;2022-09-09T05:14:33;18.73;;;16.27;;
6547;SDS011;3307;52.416;16.862;2022-09-09T05:17:01;17.27;;;15.45;;
6547;SDS011;3307;52.416;16.862;2022-09-09T05:19:26;19.53;;;17.50;;
6547;SDS011;3307;52.416;16.862;2022-09-09T05:21:52;16.87;;;15.17;;
6547;SDS011;3307;52.416;16.862;2022-09-09T05:24:17;17.47;;;15.73;;
6547;SDS011;3307;52.416;16.862;2022-09-09T05:26:42;16.87;;;15.27;;
6547;SDS011;3307;52.416;16.862;2022-09-09T05:29:09;17.80;;;16.00;;
6547;SDS011;3307;52.416;16.862;2022-09-09T05:31:34;17.20;;;15.30;;
6547;SDS011;3307;52.416;16.862;2022-09-09T05:33:59;18.03;;;15.27;;
6547;SDS011;3307;52.416;16.862;2022-09-09T05:36:25;16.70;;;15.10;;
6547;SDS011;3307;52.416;16.862;2022-09-09T05:38:50;15.03;;;13.70;;
6547;SDS011;3307;52.416;16.862;2022-09-09T05:41:19;17.40;;;13.95;;
6547;SDS011;3307;52.416;16.862;2022-09-09T05:43:45;14.55;;;13.05;;
6547;SDS011;3307;52.416;16.862;2022-09-09T05:46:13;15.57;;;14.18;;
6547;SDS011;3307;52.416;16.862;2022-09-09T05:48:40;14.43;;;13.23;;
6547;SDS011;3307;52.416;16.862;2022-09-09T05:51:07;14.90;;;13.40;;
6547;SDS011;3307;52.416;16.862;2022-09-09T05:53:34;14.77;;;13.32;;
6547;SDS011;3307;52.416;16.862;2022-09-09T05:56:03;15.87;;;14.47;;
6547;SDS011;3307;52.416;16.862;2022-09-09T05:58:30;15.55;;;14.05;;
6547;SDS011;3307;52.416;16.862;2022-09-09T06:01:05;16.50;;;15.00;;
6547;SDS011;3307;52.416;16.862;2022-09-09T06:03:33;17.83;;;16.23;;
6547;SDS011;3307;52.416;16.862;2022-09-09T06:05:59;15.40;;;14.10;;
6547;SDS011;3307;52.416;16.862;2022-09-09T06:08:26;16.73;;;15.23;;
6547;SDS011;3307;52.416;16.862;2022-09-09T06:10:51;17.00;;;15.40;;
6547;SDS011;3307;52.416;16.862;2022-09-09T06:13:17;17.67;;;15.97;;
6547;SDS011;3307;52.416;16.862;2022-09-09T06:15:49;18.30;;;16.50;;
6547;SDS011;3307;52.416;16.862;2022-09-09T06:18:16;17.53;;;15.87;;
6547;SDS011;3307;52.416;16.862;2022-09-09T06:20:43;15.68;;;14.27;;
6547;SDS011;3307;52.416;16.862;2022-09-09T06:23:08;16.30;;;14.80;;
6547;SDS011;3307;52.416;16.862;2022-09-09T06:25:34;16.87;;;15.37;;
6547;SDS011;3307;52.416;16.862;2022-09-09T06:27:59;18.47;;;16.90;;
6547;SDS011;3307;52.416;16.862;2022-09-09T06:30:24;17.97;;;16.17;;
6547;SDS011;3307;52.416;16.862;2022-09-09T06:32:50;17.50;;;15.83;;
6547;SDS011;3307;52.416;16.862;2022-09-09T06:35:16;19.03;;;17.13;;
6547;SDS011;3307;52.416;16.862;2022-09-09T06:37:44;18.20;;;16.53;;
6547;SDS011;3307;52.416;16.862;2022-09-09T06:40:10;18.47;;;16.77;;
6547;SDS011;3307;52.416;16.862;2022-09-09T06:42:36;18.17;;;16.37;;
6547;SDS011;3307;52.416;16.862;2022-09-09T06:45:01;17.00;;;15.50;;
6547;SDS011;3307;52.416;16.862;2022-09-09T06:47:27;17.70;;;16.03;;
6547;SDS011;3307;52.416;16.862;2022-09-09T06:49:53;16.88;;;15.30;;
6547;SDS011;3307;52.416;16.862;2022-09-09T06:52:18;16.97;;;15.27;;
6547;SDS011;3307;52.416;16.862;2022-09-09T06:54:44;17.10;;;15.60;;
6547;SDS011;3307;52.416;16.862;2022-09-09T06:57:10;17.40;;;15.80;;
6547;SDS011;3307;52.416;16.862;2022-09-09T06:59:35;15.93;;;14.30;;
6547;SDS011;3307;52.416;16.862;2022-09-09T07:02:01;17.13;;;15.63;;
6547;SDS011;3307;52.416;16.862;2022-09-09T07:04:26;16.63;;;14.93;;
6547;SDS011;3307;52.416;16.862;2022-09-09T07:06:52;19.40;;;17.63;;
6547;SDS011;3307;52.416;16.862;2022-09-09T07:09:17;19.33;;;17.37;;
6547;SDS011;3307;52.416;16.862;2022-09-09T07:11:47;17.70;;;15.83;;
6547;SDS011;3307;52.416;16.862;2022-09-09T07:14:13;19.25;;;17.33;;
6547;SDS011;3307;52.416;16.862;2022-09-09T07:16:40;17.03;;;15.53;;
6547;SDS011;3307;52.416;16.862;2022-09-09T07:19:06;18.70;;;16.87;;
6547;SDS011;3307;52.416;16.862;2022-09-09T07:21:32;16.07;;;14.67;;
6547;SDS011;3307;52.416;16.862;2022-09-09T07:23:58;16.07;;;14.57;;
6547;SDS011;3307;52.416;16.862;2022-09-09T07:26:25;17.23;;;15.67;;
6547;SDS011;3307;52.416;16.862;2022-09-09T07:28:52;18.47;;;16.77;;
6547;SDS011;3307;52.416;16.862;2022-09-09T07:31:51;17.03;;;15.43;;
6547;SDS011;3307;52.416;16.862;2022-09-09T07:34:10;17.40;;;15.80;;
6547;SDS011;3307;52.416;16.862;2022-09-09T07:36:36;16.03;;;14.40;;
6547;SDS011;3307;52.416;16.862;2022-09-09T07:39:04;14.85;;;13.55;;
6547;SDS011;3307;52.416;16.862;2022-09-09T07:41:35;13.60;;;12.45;;
6547;SDS011;3307;52.416;16.862;2022-09-09T07:44:04;13.03;;;11.83;;
6547;SDS011;3307;52.416;16.862;2022-09-09T07:46:34;12.73;;;11.63;;
6547;SDS011;3307;52.416;16.862;2022-09-09T07:49:00;13.53;;;12.43;;
6547;SDS011;3307;52.416;16.862;2022-09-09T07:51:31;12.30;;;11.30;;
6547;SDS011;3307;52.416;16.862;2022-09-09T07:53:59;15.10;;;11.60;;
6547;SDS011;3307;52.416;16.862;2022-09-09T07:56:27;13.13;;;11.83;;
6547;SDS011;3307;52.416;16.862;2022-09-09T07:58:54;11.30;;;10.27;;
6547;SDS011;3307;52.416;16.862;2022-09-09T08:01:24;12.17;;;11.07;;
6547;SDS011;3307;52.416;16.862;2022-09-09T08:03:55;13.47;;;11.90;;
6547;SDS011;3307;52.416;16.862;2022-09-09T08:06:25;12.60;;;11.23;;
6547;SDS011;3307;52.416;16.862;2022-09-09T08:08:51;12.60;;;11.40;;
6547;SDS011;3307;52.416;16.862;2022-09-09T08:11:17;13.20;;;10.03;;
6547;SDS011;3307;52.416;16.862;2022-09-09T08:13:43;9.77;;;8.87;;
6547;SDS011;3307;52.416;16.862;2022-09-09T08:18:42;9.20;;;8.30;;
6547;SDS011;3307;52.416;16.862;2022-09-09T08:21:10;9.10;;;8.30;;
6547;SDS011;3307;52.416;16.862;2022-09-09T08:23:37;7.77;;;7.07;;
6547;SDS011;3307;52.416;16.862;2022-09-09T08:26:05;8.50;;;7.30;;
6547;SDS011;3307;52.416;16.862;2022-09-09T08:28:31;8.07;;;7.27;;
6547;SDS011;3307;52.416;16.862;2022-09-09T08:31:04;8.37;;;7.50;;
6547;SDS011;3307;52.416;16.862;2022-09-09T08:33:30;8.10;;;7.40;;
6547;SDS011;3307;52.416;16.862;2022-09-09T08:35:55;7.00;;;6.50;;
6547;SDS011;3307;52.416;16.862;2022-09-09T08:38:21;6.40;;;5.80;;
6547;SDS011;3307;52.416;16.862;2022-09-09T08:40:46;6.90;;;6.30;;
6547;SDS011;3307;52.416;16.862;2022-09-09T08:43:14;7.50;;;5.83;;
6547;SDS011;3307;52.416;16.862;2022-09-09T08:45:50;6.83;;;6.33;;
6547;SDS011;3307;52.416;16.862;2022-09-09T08:48:44;6.93;;;5.93;;
6547;SDS011;3307;52.416;16.862;2022-09-09T08:51:10;9.70;;;8.63;;
6547;SDS011;3307;52.416;16.862;2022-09-09T08:53:38;7.73;;;7.03;;
6547;SDS011;3307;52.416;16.862;2022-09-09T08:56:12;6.93;;;6.43;;
6547;SDS011;3307;52.416;16.862;2022-09-09T08:58:43;7.33;;;6.73;;
6547;SDS011;3307;52.416;16.862;2022-09-09T09:06:54;6.17;;;5.57;;
6547;SDS011;3307;52.416;16.862;2022-09-09T09:12:24;5.63;;;5.23;;
6547;SDS011;3307;52.416;16.862;2022-09-09T09:14:51;5.47;;;5.07;;
6547;SDS011;3307;52.416;16.862;2022-09-09T09:17:17;5.73;;;4.77;;
6547;SDS011;3307;52.416;16.862;2022-09-09T09:19:44;7.23;;;6.67;;
6547;SDS011;3307;52.416;16.862;2022-09-09T09:22:16;6.07;;;5.60;;
6547;SDS011;3307;52.416;16.862;2022-09-09T09:27:36;4.73;;;4.33;;
6547;SDS011;3307;52.416;16.862;2022-09-09T09:30:16;6.00;;;5.50;;
6547;SDS011;3307;52.416;16.862;2022-09-09T09:32:51;5.53;;;5.13;;
6547;SDS011;3307;52.416;16.862;2022-09-09T09:35:19;5.27;;;4.87;;
6547;SDS011;3307;52.416;16.862;2022-09-09T09:37:44;5.10;;;4.70;;
6547;SDS011;3307;52.416;16.862;2022-09-09T09:40:12;4.53;;;4.13;;
6547;SDS011;3307;52.416;16.862;2022-09-09T09:42:55;5.13;;;4.73;;
6547;SDS011;3307;52.416;16.862;2022-09-09T09:45:31;5.47;;;4.97;;
6547;SDS011;3307;52.416;16.862;2022-09-09T09:48:03;4.67;;;4.30;;
6547;SDS011;3307;52.416;16.862;2022-09-09T09:50:30;4.50;;;4.10;;
6547;SDS011;3307;52.416;16.862;2022-09-09T09:53:02;5.83;;;5.07;;
6547;SDS011;3307;52.416;16.862;2022-09-09T09:55:29;5.10;;;4.57;;
6547;SDS011;3307;52.416;16.862;2022-09-09T09:58:05;5.03;;;4.63;;
6547;SDS011;3307;52.416;16.862;2022-09-09T10:00:32;4.97;;;4.57;;
6547;SDS011;3307;52.416;16.862;2022-09-09T10:03:00;5.13;;;4.80;;
6547;SDS011;3307;52.416;16.862;2022-09-09T10:05:27;5.70;;;5.20;;
6547;SDS011;3307;52.416;16.862;2022-09-09T10:08:00;6.20;;;5.77;;
6547;SDS011;3307;52.416;16.862;2022-09-09T10:10:49;7.00;;;6.30;;
6547;SDS011;3307;52.416;16.862;2022-09-09T10:13:40;8.20;;;5.37;;
6547;SDS011;3307;52.416;16.862;2022-09-09T10:24:26;5.87;;;5.30;;
6547;SDS011;3307;52.416;16.862;2022-09-09T10:32:32;6.57;;;5.97;;
6547;SDS011;3307;52.416;16.862;2022-09-09T10:35:17;8.57;;;5.60;;
6547;SDS011;3307;52.416;16.862;2022-09-09T10:42:59;5.80;;;5.27;;
6547;SDS011;3307;52.416;16.862;2022-09-09T10:45:41;5.13;;;4.60;;
6547;SDS011;3307;52.416;16.862;2022-09-09T10:50:52;4.80;;;4.40;;
6547;SDS011;3307;52.416;16.862;2022-09-09T10:53:35;4.10;;;3.80;;
6547;SDS011;3307;52.416;16.862;2022-09-09T10:56:08;6.63;;;4.40;;
6547;SDS011;3307;52.416;16.862;2022-09-09T10:58:47;5.67;;;3.87;;
6547;SDS011;3307;52.416;16.862;2022-09-09T11:01:22;4.23;;;3.90;;
6547;SDS011;3307;52.416;16.862;2022-09-09T11:03:55;4.70;;;4.20;;
6547;SDS011;3307;52.416;16.862;2022-09-09T11:06:25;5.20;;;4.70;;
6547;SDS011;3307;52.416;16.862;2022-09-09T11:08:54;4.80;;;4.47;;
6547;SDS011;3307;52.416;16.862;2022-09-09T11:12:04;4.57;;;4.17;;
6547;SDS011;3307;52.416;16.862;2022-09-09T11:14:56;5.50;;;5.00;;
6547;SDS011;3307;52.416;16.862;2022-09-09T11:19:48;5.07;;;4.67;;
6547;SDS011;3307;52.416;16.862;2022-09-09T11:22:19;7.07;;;4.27;;
6547;SDS011;3307;52.416;16.862;2022-09-09T11:25:07;5.70;;;3.87;;
6547;SDS011;3307;52.416;16.862;2022-09-09T11:33:16;4.37;;;4.00;;
6547;SDS011;3307;52.416;16.862;2022-09-09T11:41:51;4.53;;;3.40;;
6547;SDS011;3307;52.416;16.862;2022-09-09T11:44:18;2.83;;;2.63;;
6547;SDS011;3307;52.416;16.862;2022-09-09T11:46:49;3.53;;;3.23;;
6547;SDS011;3307;52.416;16.862;2022-09-09T11:49:48;3.60;;;3.10;;
6547;SDS011;3307;52.416;16.862;2022-09-09T11:52:35;2.87;;;2.60;;
6547;SDS011;3307;52.416;16.862;2022-09-09T12:00:49;3.77;;;2.43;;
6547;SDS011;3307;52.416;16.862;2022-09-09T12:04:16;3.20;;;2.43;;
6547;SDS011;3307;52.416;16.862;2022-09-09T12:06:17;2.67;;;2.47;;
6547;SDS011;3307;52.416;16.862;2022-09-09T12:08:46;3.40;;;2.53;;
6547;SDS011;3307;52.416;16.862;2022-09-09T12:11:29;4.67;;;3.07;;
6547;SDS011;3307;52.416;16.862;2022-09-09T12:13:57;2.53;;;2.33;;
6547;SDS011;3307;52.416;16.862;2022-09-09T12:16:33;4.83;;;2.90;;
6547;SDS011;3307;52.416;16.862;2022-09-09T12:19:12;3.53;;;2.27;;
6547;SDS011;3307;52.416;16.862;2022-09-09T12:24:35;2.20;;;2.10;;
6547;SDS011;3307;52.416;16.862;2022-09-09T12:27:16;5.87;;;2.70;;
6547;SDS011;3307;52.416;16.862;2022-09-09T12:30:07;3.23;;;2.90;;
6547;SDS011;3307;52.416;16.862;2022-09-09T12:32:34;4.27;;;3.50;;
6547;SDS011;3307;52.416;16.862;2022-09-09T12:35:02;3.13;;;2.50;;
6547;SDS011;3307;52.416;16.862;2022-09-09T12:37:37;3.20;;;2.93;;
6547;SDS011;3307;52.416;16.862;2022-09-09T12:42:56;3.77;;;2.00;;
6547;SDS011;3307;52.416;16.862;2022-09-09T12:45:22;3.90;;;3.60;;
6547;SDS011;3307;52.416;16.862;2022-09-09T12:50:26;2.40;;;2.20;;
6547;SDS011;3307;52.416;16.862;2022-09-09T12:56:09;2.87;;;2.67;;
6547;SDS011;3307;52.416;16.862;2022-09-09T12:58:53;4.30;;;2.10;;
6547;SDS011;3307;52.416;16.862;2022-09-09T13:01:22;2.30;;;1.93;;
6547;SDS011;3307;52.416;16.862;2022-09-09T13:03:50;8.17;;;2.70;;
6547;SDS011;3307;52.416;16.862;2022-09-09T13:06:20;3.13;;;2.37;;
6547;SDS011;3307;52.416;16.862;2022-09-09T13:08:59;1.90;;;1.73;;
6547;SDS011;3307;52.416;16.862;2022-09-09T13:11:26;3.50;;;2.23;;
6547;SDS011;3307;52.416;16.862;2022-09-09T13:16:54;2.37;;;2.00;;
6547;SDS011;3307;52.416;16.862;2022-09-09T13:19:21;3.10;;;1.80;;
6547;SDS011;3307;52.416;16.862;2022-09-09T13:21:46;2.47;;;2.27;;
6547;SDS011;3307;52.416;16.862;2022-09-09T13:24:31;2.80;;;2.37;;
6547;SDS011;3307;52.416;16.862;2022-09-09T13:27:50;4.13;;;2.30;;
6547;SDS011;3307;52.416;16.862;2022-09-09T13:35:34;5.00;;;2.37;;
6547;SDS011;3307;52.416;16.862;2022-09-09T13:38:06;5.10;;;2.80;;
6547;SDS011;3307;52.416;16.862;2022-09-09T13:40:34;3.40;;;2.80;;
6547;SDS011;3307;52.416;16.862;2022-09-09T13:42:59;3.83;;;2.50;;
6547;SDS011;3307;52.416;16.862;2022-09-09T13:45:25;3.63;;;2.50;;
6547;SDS011;3307;52.416;16.862;2022-09-09T13:47:52;7.40;;;2.90;;
6547;SDS011;3307;52.416;16.862;2022-09-09T13:52:49;2.90;;;2.13;;
6547;SDS011;3307;52.416;16.862;2022-09-09T13:55:18;2.30;;;1.97;;
6547;SDS011;3307;52.416;16.862;2022-09-09T13:57:54;2.40;;;2.20;;
6547;SDS011;3307;52.416;16.862;2022-09-09T14:00:25;1.80;;;1.70;;
6547;SDS011;3307;52.416;16.862;2022-09-09T14:02:50;2.60;;;1.57;;
6547;SDS011;3307;52.416;16.862;2022-09-09T14:05:17;1.70;;;1.57;;
6547;SDS011;3307;52.416;16.862;2022-09-09T14:07:43;2.17;;;1.50;;
6547;SDS011;3307;52.416;16.862;2022-09-09T14:10:09;4.00;;;1.83;;
6547;SDS011;3307;52.416;16.862;2022-09-09T14:12:35;2.20;;;2.00;;
6547;SDS011;3307;52.416;16.862;2022-09-09T14:15:04;2.13;;;1.80;;
6547;SDS011;3307;52.416;16.862;2022-09-09T14:17:32;2.90;;;1.63;;
6547;SDS011;3307;52.416;16.862;2022-09-09T14:19:58;2.23;;;1.67;;
6547;SDS011;3307;52.416;16.862;2022-09-09T14:22:24;2.37;;;1.90;;
6547;SDS011;3307;52.416;16.862;2022-09-09T14:24:50;3.03;;;2.00;;
6547;SDS011;3307;52.416;16.862;2022-09-09T14:27:16;1.70;;;1.60;;
6547;SDS011;3307;52.416;16.862;2022-09-09T14:29:41;3.40;;;2.50;;
6547;SDS011;3307;52.416;16.862;2022-09-09T14:32:08;3.83;;;3.20;;
6547;SDS011;3307;52.416;16.862;2022-09-09T14:34:34;4.60;;;2.47;;
6547;SDS011;3307;52.416;16.862;2022-09-09T14:37:00;2.43;;;2.20;;
6547;SDS011;3307;52.416;16.862;2022-09-09T14:39:25;2.80;;;1.90;;
6547;SDS011;3307;52.416;16.862;2022-09-09T14:41:51;3.03;;;1.83;;
6547;SDS011;3307;52.416;16.862;2022-09-09T14:44:16;2.60;;;1.87;;
6547;SDS011;3307;52.416;16.862;2022-09-09T14:46:42;3.40;;;2.17;;
6547;SDS011;3307;52.416;16.862;2022-09-09T14:49:08;4.10;;;2.97;;
6547;SDS011;3307;52.416;16.862;2022-09-09T14:51:35;2.67;;;1.93;;
6547;SDS011;3307;52.416;16.862;2022-09-09T14:54:00;2.20;;;1.77;;
6547;SDS011;3307;52.416;16.862;2022-09-09T14:56:28;3.50;;;2.23;;
6547;SDS011;3307;52.416;16.862;2022-09-09T14:58:55;3.00;;;2.47;;
6547;SDS011;3307;52.416;16.862;2022-09-09T15:01:21;2.13;;;1.90;;
6547;SDS011;3307;52.416;16.862;2022-09-09T15:03:54;2.37;;;2.17;;
6547;SDS011;3307;52.416;16.862;2022-09-09T15:06:24;3.90;;;2.37;;
6547;SDS011;3307;52.416;16.862;2022-09-09T15:08:51;5.43;;;3.33;;
6547;SDS011;3307;52.416;16.862;2022-09-09T15:11:17;2.60;;;2.40;;
6547;SDS011;3307;52.416;16.862;2022-09-09T15:13:43;4.00;;;2.30;;
6547;SDS011;3307;52.416;16.862;2022-09-09T15:16:10;2.73;;;2.43;;
6547;SDS011;3307;52.416;16.862;2022-09-09T15:18:37;2.27;;;2.07;;
6547;SDS011;3307;52.416;16.862;2022-09-09T15:21:08;2.37;;;1.90;;
6547;SDS011;3307;52.416;16.862;2022-09-09T15:23:35;2.17;;;1.97;;
6547;SDS011;3307;52.416;16.862;2022-09-09T15:26:01;5.40;;;2.40;;
6547;SDS011;3307;52.416;16.862;2022-09-09T15:28:27;4.50;;;3.27;;
6547;SDS011;3307;52.416;16.862;2022-09-09T15:30:52;3.23;;;2.47;;
6547;SDS011;3307;52.416;16.862;2022-09-09T15:33:19;5.93;;;2.90;;
6547;SDS011;3307;52.416;16.862;2022-09-09T15:35:45;2.87;;;2.43;;
6547;SDS011;3307;52.416;16.862;2022-09-09T15:38:11;3.03;;;2.30;;
6547;SDS011;3307;52.416;16.862;2022-09-09T15:40:38;3.40;;;3.10;;
6547;SDS011;3307;52.416;16.862;2022-09-09T15:43:04;3.17;;;2.97;;
6547;SDS011;3307;52.416;16.862;2022-09-09T15:45:31;4.73;;;2.40;;
6547;SDS011;3307;52.416;16.862;2022-09-09T15:47:58;3.53;;;2.97;;
6547;SDS011;3307;52.416;16.862;2022-09-09T15:50:25;5.80;;;3.80;;
6547;SDS011;3307;52.416;16.862;2022-09-09T15:52:51;7.10;;;2.80;;
6547;SDS011;3307;52.416;16.862;2022-09-09T15:55:17;2.93;;;2.60;;
6547;SDS011;3307;52.416;16.862;2022-09-09T15:57:44;4.00;;;2.50;;
6547;SDS011;3307;52.416;16.862;2022-09-09T16:00:09;3.20;;;2.77;;
6547;SDS011;3307;52.416;16.862;2022-09-09T16:02:38;2.80;;;2.50;;
6547;SDS011;3307;52.416;16.862;2022-09-09T16:05:03;2.90;;;2.60;;
6547;SDS011;3307;52.416;16.862;2022-09-09T16:07:29;2.87;;;2.63;;
6547;SDS011;3307;52.416;16.862;2022-09-09T16:09:55;3.53;;;3.20;;
6547;SDS011;3307;52.416;16.862;2022-09-09T16:12:20;3.87;;;3.03;;
6547;SDS011;3307;52.416;16.862;2022-09-09T16:14:46;3.73;;;2.80;;
6547;SDS011;3307;52.416;16.862;2022-09-09T16:17:11;4.20;;;3.27;;
6547;SDS011;3307;52.416;16.862;2022-09-09T16:19:37;4.43;;;3.27;;
6547;SDS011;3307;52.416;16.862;2022-09-09T16:22:03;4.80;;;3.00;;
6547;SDS011;3307;52.416;16.862;2022-09-09T16:24:29;3.10;;;2.90;;
6547;SDS011;3307;52.416;16.862;2022-09-09T16:26:54;3.40;;;3.10;;
6547;SDS011;3307;52.416;16.862;2022-09-09T16:29:20;3.80;;;3.00;;
6547;SDS011;3307;52.416;16.862;2022-09-09T16:31:47;5.60;;;2.90;;
6547;SDS011;3307;52.416;16.862;2022-09-09T16:34:14;5.60;;;3.10;;
6547;SDS011;3307;52.416;16.862;2022-09-09T16:36:40;5.20;;;4.40;;
6547;SDS011;3307;52.416;16.862;2022-09-09T16:39:07;4.63;;;2.83;;
6547;SDS011;3307;52.416;16.862;2022-09-09T16:41:36;4.17;;;3.33;;
6547;SDS011;3307;52.416;16.862;2022-09-09T16:44:04;5.87;;;3.80;;
6547;SDS011;3307;52.416;16.862;2022-09-09T16:46:31;5.13;;;3.60;;
6547;SDS011;3307;52.416;16.862;2022-09-09T16:48:59;5.70;;;3.70;;
6547;SDS011;3307;52.416;16.862;2022-09-09T16:51:26;3.40;;;3.10;;
6547;SDS011;3307;52.416;16.862;2022-09-09T16:53:53;3.63;;;3.33;;